Time;durP1;ratioP1;P1;durP2;ratioP2;P2;SDS_P1;SDS_P2;PMS_P1;PMS_P2;Temp;Humidity;BMP_temperature;BMP_pressure;BME280_temperature;BME280_humidity;BME280_pressure;Samples;Min_cycle;Max_cycle;Signal;HPM_P1;HPM_P2
2022/03/28 00:01:28;;;;;;;9.32;4.53;;;7.20;72.20;;;;;;6314562;22;20117;-90
2022/03/28 00:03:54;;;;;;;9.88;5.22;;;7.20;72.20;;;;;;6289227;22;20422;-90
2022/03/28 00:06:19;;;;;;;7.90;5.45;;;7.20;72.10;;;;;;6314217;22;20054;-89
2022/03/28 00:08:45;;;;;;;14.32;5.07;;;7.60;72.50;;;;;;6288403;22;20041;-90
2022/03/28 00:11:11;;;;;;;11.30;5.43;;;7.20;72.30;;;;;;6314234;22;20011;-89
2022/03/28 00:13:37;;;;;;;11.82;6.05;;;7.30;72.30;;;;;;6314614;22;20018;-89
2022/03/28 00:16:03;;;;;;;12.73;5.43;;;7.30;72.10;;;;;;6314651;22;20183;-89
2022/03/28 00:18:29;;;;;;;10.40;5.60;;;7.30;72.10;;;;;;6288200;22;20014;-90
2022/03/28 00:20:55;;;;;;;9.88;5.13;;;7.30;72.10;;;;;;6342111;22;20342;-89
2022/03/28 00:23:22;;;;;;;14.45;5.75;;;7.80;72.40;;;;;;6342087;22;20014;-90
2022/03/28 00:25:49;;;;;;;7.60;4.63;;;7.20;72.20;;;;;;6314024;22;20054;-91
2022/03/28 00:31:55;;;;;;;10.32;5.32;;;7.20;72.80;;;;;;6341777;22;20484;-90
2022/03/28 00:34:23;;;;;;;9.93;5.95;;;7.20;72.50;;;;;;6341593;22;20011;-90
2022/03/28 00:36:52;;;;;;;8.68;5.45;;;7.20;72.50;;;;;;6314025;22;20014;-90
2022/03/28 00:39:19;;;;;;;9.73;4.82;;;7.20;73.10;;;;;;6314104;22;20042;-89
2022/03/28 00:41:49;;;;;;;13.90;4.47;;;7.20;72.70;;;;;;6314178;22;20015;-88
2022/03/28 00:45:11;;;;;;;9.63;4.38;;;7.20;72.60;;;;;;6314021;22;20018;-91
2022/03/28 00:47:36;;;;;;;10.88;4.57;;;7.30;72.90;;;;;;6341416;22;20065;-90
2022/03/28 00:50:03;;;;;;;18.67;4.60;;;7.30;72.70;;;;;;6313875;22;20441;-90
2022/03/28 00:52:29;;;;;;;9.63;4.65;;;7.30;72.70;;;;;;6314316;22;20003;-89
2022/03/28 00:54:57;;;;;;;9.13;4.75;;;7.20;72.50;;;;;;6314380;22;20104;-90
2022/03/28 00:57:23;;;;;;;10.35;4.35;;;7.20;72.70;;;;;;6287798;22;20021;-90
2022/03/28 00:59:49;;;;;;;9.18;5.47;;;7.10;72.70;;;;;;6288443;22;20050;-90
2022/03/28 01:02:15;;;;;;;8.10;4.25;;;7.10;72.90;;;;;;6314795;22;20017;-90
2022/03/28 01:04:41;;;;;;;6.95;4.38;;;7.10;72.90;;;;;;6314560;22;20021;-90
2022/03/28 01:07:07;;;;;;;15.55;4.72;;;7.10;73.60;;;;;;6342532;22;20015;-89
2022/03/28 01:09:34;;;;;;;12.30;4.93;;;7.00;73.20;;;;;;6314800;22;20025;-90
2022/03/28 01:12:00;;;;;;;10.60;4.63;;;7.00;73.30;;;;;;6318775;22;20014;-90
2022/03/28 01:14:26;;;;;;;14.93;5.55;;;7.10;73.40;;;;;;6291065;22;20061;-90
2022/03/28 01:19:37;;;;;;;7.45;4.60;;;7.00;73.30;;;;;;6314780;22;20019;-90
2022/03/28 01:22:02;;;;;;;12.85;5.72;;;7.10;73.80;;;;;;6314992;22;20394;-90
2022/03/28 01:24:28;;;;;;;10.95;6.07;;;7.10;73.40;;;;;;6342863;22;20055;-89
2022/03/28 01:26:55;;;;;;;16.90;7.45;;;7.10;73.40;;;;;;6342523;22;20330;-90
2022/03/28 01:29:21;;;;;;;14.82;6.32;;;7.40;73.60;;;;;;6333201;22;20002;-88
2022/03/28 01:31:46;;;;;;;9.80;6.13;;;7.10;73.30;;;;;;6341542;22;20006;-88
2022/03/28 01:34:17;;;;;;;18.20;6.97;;;7.20;73.20;;;;;;6340992;22;20122;-90
2022/03/28 01:36:45;;;;;;;13.82;6.13;;;7.20;73.30;;;;;;6346679;22;20021;-89
2022/03/28 01:39:12;;;;;;;22.40;7.32;;;7.30;73.20;;;;;;6319402;22;20434;-90
2022/03/28 01:41:37;;;;;;;15.98;8.13;;;7.30;73.20;;;;;;6347750;22;20011;-89
2022/03/28 01:47:45;;;;;;;29.25;8.98;;;7.30;73.00;;;;;;6341435;22;20013;-91
2022/03/28 01:50:11;;;;;;;18.73;8.32;;;7.30;72.80;;;;;;6314137;22;20018;-91
2022/03/28 01:52:37;;;;;;;17.05;8.65;;;7.30;72.90;;;;;;6313801;22;20430;-91
2022/03/28 01:55:04;;;;;;;15.57;8.35;;;7.20;72.90;;;;;;6314068;22;20033;-90
2022/03/28 02:01:37;;;;;;;11.83;7.03;;;7.30;73.10;;;;;;6342105;22;20021;-91
2022/03/28 02:04:04;;;;;;;17.40;7.15;;;7.20;72.80;;;;;;6313972;22;20284;-91
2022/03/28 02:06:30;;;;;;;21.48;8.98;;;7.20;72.80;;;;;;6314172;22;20018;-91
2022/03/28 02:08:55;;;;;;;16.95;8.00;;;7.20;72.70;;;;;;6315013;22;20007;-91
2022/03/28 02:11:21;;;;;;;16.40;8.35;;;7.20;73.20;;;;;;6342091;22;20453;-89
2022/03/28 02:13:47;;;;;;;13.82;7.25;;;7.20;72.80;;;;;;6288116;22;20015;-90
2022/03/28 02:16:13;;;;;;;15.60;8.32;;;7.20;72.80;;;;;;6316818;22;20063;-92
2022/03/28 02:18:39;;;;;;;11.23;6.20;;;7.20;73.10;;;;;;6346050;22;20026;-91
2022/03/28 02:21:05;;;;;;;13.77;6.97;;;7.20;73.30;;;;;;6293784;22;20010;-91
2022/03/28 02:23:31;;;;;;;10.63;6.15;;;7.20;73.20;;;;;;6320531;22;20056;-90
2022/03/28 02:25:57;;;;;;;12.45;6.88;;;7.20;73.20;;;;;;6319949;22;20007;-90
2022/03/28 02:32:05;;;;;;;13.23;7.35;;;7.30;73.20;;;;;;6346785;22;20059;-91
2022/03/28 02:34:30;;;;;;;20.35;7.45;;;7.30;73.10;;;;;;6316925;22;20020;-91
2022/03/28 02:36:56;;;;;;;11.30;7.15;;;7.30;72.90;;;;;;6317307;22;20077;-91
2022/03/28 02:39:22;;;;;;;14.05;7.22;;;7.60;73.00;;;;;;6342169;22;20099;-91
2022/03/28 02:41:47;;;;;;;11.10;6.93;;;7.40;73.00;;;;;;6315650;22;20081;-91
2022/03/28 02:44:14;;;;;;;9.43;6.78;;;7.40;72.90;;;;;;6314863;22;20042;-91
2022/03/28 02:46:40;;;;;;;14.77;6.75;;;7.40;73.00;;;;;;6314921;22;20053;-91
2022/03/28 02:49:05;;;;;;;11.35;6.75;;;7.40;72.90;;;;;;6315290;22;20015;-91
2022/03/28 02:51:31;;;;;;;9.73;6.40;;;7.40;73.00;;;;;;6320673;22;20034;-90
2022/03/28 02:53:57;;;;;;;16.08;7.82;;;7.40;73.00;;;;;;6326008;22;20018;-91
2022/03/28 02:56:23;;;;;;;12.65;7.03;;;7.40;73.20;;;;;;6300278;22;20078;-91
2022/03/28 02:59:07;;;;;;;10.73;6.45;;;7.40;73.20;;;;;;6327909;22;20042;-91
2022/03/28 03:01:33;;;;;;;9.88;6.95;;;7.50;73.20;;;;;;6330925;22;20072;-91
2022/03/28 03:03:59;;;;;;;10.10;6.90;;;7.40;73.00;;;;;;6305808;22;20019;-91
2022/03/28 03:06:24;;;;;;;13.30;8.18;;;7.60;73.10;;;;;;6337415;22;20002;-90
2022/03/28 03:08:50;;;;;;;13.75;8.27;;;7.50;72.90;;;;;;6369020;22;20017;-90
2022/03/28 03:11:16;;;;;;;14.45;7.15;;;7.50;72.80;;;;;;6338590;22;20015;-91
2022/03/28 03:13:42;;;;;;;12.10;7.03;;;7.60;72.80;;;;;;6339411;22;20045;-91
2022/03/28 03:16:08;;;;;;;12.65;7.03;;;7.60;72.60;;;;;;6334567;22;20010;-91
2022/03/28 03:18:33;;;;;;;10.93;7.50;;;7.50;72.40;;;;;;6332638;22;20049;-91
2022/03/28 03:20:59;;;;;;;21.17;8.73;;;7.50;72.50;;;;;;6364065;22;20014;-91
2022/03/28 03:23:27;;;;;;;22.75;9.07;;;7.40;72.60;;;;;;6364801;22;20007;-91
2022/03/28 03:25:53;;;;;;;19.38;10.23;;;7.50;72.60;;;;;;6306617;22;20076;-91
2022/03/28 03:28:22;;;;;;;15.48;9.15;;;7.40;72.50;;;;;;6358512;22;20015;-92
2022/03/28 03:30:48;;;;;;;19.13;9.70;;;7.50;73.10;;;;;;6351942;22;20060;-89
2022/03/28 03:33:14;;;;;;;20.58;10.82;;;7.40;72.70;;;;;;6329584;22;20038;-88
2022/03/28 03:35:40;;;;;;;11.55;7.82;;;7.40;72.70;;;;;;6327556;22;20093;-89
2022/03/28 03:38:06;;;;;;;13.13;9.63;;;7.40;72.80;;;;;;6293001;22;20025;-89
2022/03/28 03:40:32;;;;;;;18.05;10.90;;;7.40;72.90;;;;;;6317632;22;20093;-90
2022/03/28 03:42:58;;;;;;;23.42;12.68;;;7.40;72.90;;;;;;6316712;22;20418;-90
2022/03/28 03:45:24;;;;;;;29.50;13.60;;;7.40;72.80;;;;;;6317189;22;20018;-90
2022/03/28 03:47:51;;;;;;;31.50;14.02;;;7.40;72.80;;;;;;6345245;22;20017;-90
2022/03/28 03:50:18;;;;;;;20.58;13.52;;;7.40;72.80;;;;;;6316260;22;20015;-90
2022/03/28 03:52:44;;;;;;;26.95;14.27;;;7.40;72.70;;;;;;6315175;22;20037;-91
2022/03/28 03:55:09;;;;;;;19.48;11.48;;;7.40;73.00;;;;;;6315270;22;20026;-91
2022/03/28 03:57:35;;;;;;;25.98;14.18;;;7.40;72.90;;;;;;6314833;22;20015;-91
2022/03/28 04:00:03;;;;;;;24.85;12.88;;;7.30;72.80;;;;;;6315181;22;20026;-90
2022/03/28 04:02:28;;;;;;;19.98;12.70;;;7.30;72.90;;;;;;6342681;22;20014;-90
2022/03/28 04:04:54;;;;;;;24.83;12.90;;;7.30;72.80;;;;;;6315229;22;20102;-90
2022/03/28 04:07:20;;;;;;;20.65;13.35;;;7.30;73.00;;;;;;6315552;22;20098;-90
2022/03/28 04:09:46;;;;;;;26.27;14.25;;;7.30;73.00;;;;;;6315054;22;20101;-89
2022/03/28 04:12:12;;;;;;;18.52;11.70;;;7.30;73.10;;;;;;6341105;22;20453;-90
2022/03/28 04:14:38;;;;;;;18.48;11.90;;;7.30;73.10;;;;;;6315115;22;20015;-90
2022/03/28 04:17:04;;;;;;;27.13;11.63;;;7.70;73.50;;;;;;6315272;22;20017;-90
2022/03/28 04:19:31;;;;;;;16.65;10.77;;;7.30;73.20;;;;;;6315116;22;20098;-91
2022/03/28 04:21:57;;;;;;;18.60;10.55;;;7.30;73.20;;;;;;6315564;22;20007;-90
2022/03/28 04:24:22;;;;;;;16.50;10.95;;;7.30;73.30;;;;;;6315327;22;20101;-90
2022/03/28 04:26:48;;;;;;;16.02;11.20;;;7.40;73.20;;;;;;6315488;22;20368;-90
2022/03/28 04:29:14;;;;;;;16.75;11.60;;;7.40;73.20;;;;;;6315254;22;20015;-89
2022/03/28 04:31:40;;;;;;;26.92;12.20;;;7.40;73.20;;;;;;6315241;22;20015;-90
2022/03/28 04:34:09;;;;;;;15.55;10.98;;;7.40;73.20;;;;;;6315198;22;20041;-91
2022/03/28 04:36:37;;;;;;;18.85;10.70;;;7.40;73.20;;;;;;6341463;22;20517;-90
2022/03/28 04:39:03;;;;;;;24.67;11.73;;;7.40;73.10;;;;;;6315802;22;20022;-91
2022/03/28 04:41:29;;;;;;;30.85;12.32;;;7.40;73.00;;;;;;6343211;22;20018;-90
2022/03/28 04:47:51;;;;;;;35.83;10.68;;;7.40;73.00;;;;;;6343236;22;20013;-92
2022/03/28 04:50:17;;;;;;;11.80;9.20;;;7.40;73.10;;;;;;6315778;22;20019;-90
2022/03/28 04:52:42;;;;;;;12.70;9.70;;;7.40;72.90;;;;;;6289611;22;20130;-91
2022/03/28 04:55:08;;;;;;;14.10;9.65;;;7.40;73.00;;;;;;6289877;22;20019;-91
2022/03/28 04:57:34;;;;;;;11.52;9.20;;;7.40;73.20;;;;;;6289870;22;20018;-91
2022/03/28 05:00:00;;;;;;;28.60;11.23;;;7.40;73.10;;;;;;6343541;22;20054;-90
2022/03/28 05:02:26;;;;;;;12.50;9.52;;;7.50;73.10;;;;;;6315963;22;20011;-90
2022/03/28 05:04:51;;;;;;;23.48;10.77;;;7.40;73.00;;;;;;6316385;22;20532;-90
2022/03/28 05:07:27;;;;;;;29.50;9.45;;;7.40;73.00;;;;;;6343674;22;20014;-90
2022/03/28 05:09:54;;;;;;;19.98;9.95;;;7.40;73.10;;;;;;6290832;22;20023;-90
2022/03/28 05:12:20;;;;;;;23.27;9.68;;;7.40;73.00;;;;;;6290820;22;20011;-91
2022/03/28 05:15:05;;;;;;;12.55;9.50;;;7.30;73.20;;;;;;6317485;22;20022;-92
2022/03/28 05:17:32;;;;;;;;;;;7.30;73.30;;;;;;6293892;22;20074;-91
2022/03/28 05:19:59;;;;;;;18.90;9.70;;;7.20;73.40;;;;;;6347933;22;19953;-92
2022/03/28 05:22:25;;;;;;;21.77;9.40;;;7.10;73.20;;;;;;6348202;22;20041;-92
2022/03/28 05:24:52;;;;;;;16.60;9.68;;;7.10;73.30;;;;;;6295709;22;20022;-90
2022/03/28 05:27:18;;;;;;;24.08;9.93;;;7.10;73.40;;;;;;6349539;22;20010;-91
2022/03/28 05:29:44;;;;;;;32.63;9.60;;;7.10;73.50;;;;;;6296617;22;20064;-89
2022/03/28 05:32:11;;;;;;;16.40;9.13;;;7.00;73.50;;;;;;6324059;22;20018;-93
2022/03/28 05:34:37;;;;;;;32.33;9.05;;;7.00;73.50;;;;;;6324645;22;20010;-92
2022/03/28 05:37:10;;;;;;;18.45;9.20;;;7.00;73.50;;;;;;6302592;22;20511;-88
2022/03/28 05:39:36;;;;;;;49.58;10.38;;;6.90;73.60;;;;;;6352104;22;20015;-87
2022/03/28 05:42:03;;;;;;;24.42;9.77;;;6.90;73.60;;;;;;6325845;22;20015;-89
2022/03/28 05:44:29;;;;;;;25.58;9.45;;;6.90;73.80;;;;;;6323049;22;20029;-89
2022/03/28 05:46:55;;;;;;;69.97;10.50;;;6.80;73.80;;;;;;6317209;22;20010;-88
2022/03/28 05:49:22;;;;;;;68.45;10.70;;;6.70;74.10;;;;;;6313652;22;20014;-86
2022/03/28 05:51:48;;;;;;;42.67;9.82;;;6.80;74.10;;;;;;6342745;22;20011;-89
2022/03/28 05:54:14;;;;;;;56.30;11.65;;;6.70;74.20;;;;;;6314816;22;20485;-87
2022/03/28 05:56:40;;;;;;;56.63;11.10;;;6.60;74.30;;;;;;6341325;22;20052;-88
2022/03/28 05:59:07;;;;;;;62.80;10.70;;;6.50;74.30;;;;;;6312203;22;20027;-88
2022/03/28 06:01:34;;;;;;;20.27;8.63;;;6.50;74.60;;;;;;6312304;22;20315;-88
2022/03/28 06:04:00;;;;;;;51.22;9.52;;;6.70;74.90;;;;;;6340326;22;20026;-88
2022/03/28 06:06:26;;;;;;;55.70;10.05;;;6.40;74.90;;;;;;6311654;22;20010;-87
2022/03/28 06:08:53;;;;;;;65.32;10.27;;;6.80;75.30;;;;;;6342918;22;20029;-93
2022/03/28 06:11:19;;;;;;;29.35;9.18;;;6.50;75.40;;;;;;6340121;22;20026;-88
2022/03/28 06:13:44;;;;;;;21.15;8.75;;;6.40;75.30;;;;;;6340178;22;20048;-89
2022/03/28 06:16:28;;;;;;;30.42;8.77;;;6.20;75.30;;;;;;6340316;22;20011;-89
2022/03/28 06:18:54;;;;;;;40.87;9.47;;;6.10;75.50;;;;;;6340787;22;20015;-87
2022/03/28 06:21:20;;;;;;;31.30;9.27;;;6.10;75.50;;;;;;6286853;22;20120;-89
2022/03/28 06:23:46;;;;;;;23.52;8.65;;;6.00;75.70;;;;;;6314938;22;20011;-89
2022/03/28 06:26:11;;;;;;;61.08;10.73;;;6.10;76.00;;;;;;6294159;22;20015;-91
2022/03/28 06:28:39;;;;;;;23.08;8.70;;;5.90;75.90;;;;;;6344096;22;20045;-89
2022/03/28 06:31:08;;;;;;;27.23;9.30;;;5.90;76.00;;;;;;6318938;22;20011;-88
2022/03/28 06:33:35;;;;;;;28.27;10.73;;;5.90;76.20;;;;;;6307851;22;20357;-88
2022/03/28 06:36:00;;;;;;;100.07;12.45;;;5.90;76.20;;;;;;6367686;22;20002;-87
2022/03/28 06:38:26;;;;;;;32.53;9.80;;;5.90;76.30;;;;;;6316259;22;20006;-89
2022/03/28 06:40:52;;;;;;;27.50;9.75;;;5.90;76.40;;;;;;6363216;22;20018;-88
2022/03/28 06:43:18;;;;;;;25.67;10.65;;;6.30;76.70;;;;;;6299877;22;20014;-89
2022/03/28 06:45:44;;;;;;;21.63;11.43;;;5.80;76.60;;;;;;6315840;22;20018;-89
2022/03/28 06:48:09;;;;;;;24.88;11.45;;;5.90;76.80;;;;;;6343638;22;20014;-89
2022/03/28 06:50:35;;;;;;;48.25;11.85;;;5.90;77.00;;;;;;6315996;22;20510;-89
2022/03/28 06:53:01;;;;;;;14.63;10.98;;;6.40;77.10;;;;;;6342322;22;20014;-89
2022/03/28 06:55:27;;;;;;;25.10;11.63;;;6.00;76.90;;;;;;6343358;22;20015;-90
2022/03/28 06:57:53;;;;;;;24.40;11.57;;;6.00;77.00;;;;;;6314804;22;20026;-91
2022/03/28 07:00:38;;;;;;;20.30;11.02;;;6.40;77.40;;;;;;6342000;22;20515;-91
2022/03/28 07:03:07;;;;;;;28.73;10.55;;;6.20;77.30;;;;;;6316723;22;20351;-89
2022/03/28 07:05:34;;;;;;;33.75;11.90;;;6.10;77.30;;;;;;6344747;22;20071;-89
2022/03/28 07:08:00;;;;;;;25.35;11.38;;;6.10;77.20;;;;;;6314109;22;20026;-88
2022/03/28 07:10:26;;;;;;;30.77;10.82;;;6.10;77.20;;;;;;6341206;22;20019;-89
2022/03/28 07:12:54;;;;;;;24.33;14.82;;;6.10;77.10;;;;;;6315173;22;20089;-92
2022/03/28 07:15:20;;;;;;;15.20;10.50;;;6.10;77.10;;;;;;6315642;22;20356;-91
2022/03/28 07:17:52;;;;;;;14.48;9.20;;;6.40;77.40;;;;;;6315282;22;20011;-89
2022/03/28 07:20:23;;;;;;;14.40;9.80;;;6.40;77.40;;;;;;6315025;22;20011;-89
2022/03/28 07:22:49;;;;;;;17.48;9.70;;;6.40;77.50;;;;;;6343146;22;20380;-90
2022/03/28 07:25:15;;;;;;;13.23;8.90;;;6.40;77.40;;;;;;6288488;22;20014;-90
2022/03/28 07:27:41;;;;;;;20.15;10.55;;;6.20;77.30;;;;;;6314560;22;20033;-90
2022/03/28 07:30:09;;;;;;;19.52;9.32;;;6.10;77.30;;;;;;6341123;22;20015;-91
2022/03/28 07:32:35;;;;;;;17.33;9.88;;;6.10;77.40;;;;;;6315468;22;20334;-91
2022/03/28 07:35:02;;;;;;;15.48;9.70;;;6.20;77.40;;;;;;6342570;22;20098;-90
2022/03/28 07:37:28;;;;;;;16.40;10.60;;;6.60;77.70;;;;;;6342470;22;20046;-90
2022/03/28 07:39:54;;;;;;;14.40;9.73;;;6.20;77.50;;;;;;6341034;22;20054;-91
2022/03/28 07:42:20;;;;;;;16.00;10.07;;;6.20;77.60;;;;;;6341882;22;20034;-90
2022/03/28 07:48:47;;;;;;;16.63;9.70;;;6.40;77.70;;;;;;6341373;22;20084;-90
2022/03/28 07:51:13;;;;;;;15.77;9.38;;;6.30;77.50;;;;;;6341501;22;20014;-90
2022/03/28 07:53:39;;;;;;;17.33;9.93;;;6.70;77.70;;;;;;6314409;22;20442;-90
2022/03/28 07:56:05;;;;;;;14.48;9.23;;;6.80;77.70;;;;;;6313968;22;20011;-89
2022/03/28 07:58:30;;;;;;;17.63;10.30;;;6.40;77.20;;;;;;6313305;22;20025;-88
2022/03/28 08:00:56;;;;;;;19.63;11.10;;;6.50;77.20;;;;;;6341848;22;20019;-88
2022/03/28 08:03:22;;;;;;;18.63;11.00;;;6.50;77.10;;;;;;6314536;22;20547;-90
2022/03/28 08:05:47;;;;;;;18.80;10.75;;;6.50;77.10;;;;;;6313745;22;20061;-89
2022/03/28 08:08:13;;;;;;;18.67;10.02;;;6.70;77.20;;;;;;6313754;22;20124;-88
2022/03/28 08:10:39;;;;;;;21.50;11.18;;;7.10;77.40;;;;;;6341669;22;20067;-90
2022/03/28 08:13:05;;;;;;;17.17;10.20;;;6.50;76.90;;;;;;6313607;22;20022;-88
2022/03/28 08:15:31;;;;;;;18.15;10.77;;;6.40;76.70;;;;;;6314052;22;20019;-90
2022/03/28 08:18:00;;;;;;;18.35;12.02;;;6.50;76.80;;;;;;6341350;22;20014;-89
2022/03/28 08:20:26;;;;;;;21.42;13.07;;;6.50;76.80;;;;;;6288151;22;20377;-90
2022/03/28 08:22:54;;;;;;;21.98;12.77;;;6.50;76.70;;;;;;6314019;22;20070;-90
2022/03/28 08:25:21;;;;;;;20.40;11.77;;;6.40;76.60;;;;;;6341061;22;20076;-90
2022/03/28 08:27:48;;;;;;;19.15;10.63;;;7.20;77.10;;;;;;6314141;22;20018;-90
2022/03/28 08:30:14;;;;;;;18.92;10.93;;;6.50;76.90;;;;;;6314146;22;20018;-90
2022/03/28 08:32:41;;;;;;;22.95;13.45;;;6.50;77.00;;;;;;6314558;22;20026;-90
2022/03/28 08:35:07;;;;;;;25.20;13.88;;;6.50;76.90;;;;;;6342736;22;20040;-91
2022/03/28 08:37:33;;;;;;;24.63;14.48;;;6.60;76.90;;;;;;6288510;22;20076;-90
2022/03/28 08:39:59;;;;;;;24.60;13.73;;;6.60;76.80;;;;;;6313741;22;20019;-91
2022/03/28 08:42:25;;;;;;;21.88;12.60;;;6.60;76.80;;;;;;6289094;22;20061;-89
2022/03/28 08:45:13;;;;;;;24.15;13.10;;;6.70;76.90;;;;;;6314249;22;20093;-91
2022/03/28 08:47:42;;;;;;;23.90;13.23;;;6.70;77.10;;;;;;6287709;22;20026;-91
2022/03/28 08:50:10;;;;;;;20.38;11.80;;;6.80;76.90;;;;;;6289579;22;20015;-91
2022/03/28 08:52:38;;;;;;;21.27;11.25;;;6.70;76.70;;;;;;6314571;22;20057;-88
2022/03/28 08:55:05;;;;;;;21.25;12.75;;;6.70;76.80;;;;;;6289812;22;20015;-89
2022/03/28 08:57:32;;;;;;;20.75;11.65;;;6.70;76.70;;;;;;6314135;22;20368;-90
2022/03/28 08:59:58;;;;;;;20.75;11.35;;;6.80;76.70;;;;;;6287965;22;20029;-88
2022/03/28 09:02:57;;;;;;;20.88;11.32;;;6.90;76.70;;;;;;6317425;22;20090;-88
2022/03/28 09:05:35;;;;;;;18.25;10.93;;;6.80;76.60;;;;;;6192178;23;20027;-91
2022/03/28 09:08:01;;;;;;;18.05;9.80;;;6.80;76.60;;;;;;6168269;23;20016;-91
2022/03/28 09:10:34;;;;;;;13.23;7.82;;;6.80;76.50;;;;;;6191790;23;20176;-91
2022/03/28 09:13:11;;;;;;;14.10;8.45;;;7.00;76.50;;;;;;6142928;23;20091;-89
2022/03/28 09:16:00;;;;;;;15.75;8.52;;;6.80;76.20;;;;;;6217623;23;20096;-90
2022/03/28 09:18:37;;;;;;;15.70;8.88;;;6.70;76.30;;;;;;6222876;23;20020;-90
2022/03/28 09:21:10;;;;;;;15.63;8.20;;;6.70;76.40;;;;;;6201191;23;20020;-91
2022/03/28 09:23:39;;;;;;;13.97;7.87;;;6.80;76.40;;;;;;6175785;23;20112;-88
2022/03/28 09:26:18;;;;;;;12.32;7.68;;;6.80;76.40;;;;;;6219693;23;20074;-86
2022/03/28 09:28:47;;;;;;;12.63;7.57;;;6.80;76.40;;;;;;6216970;23;20091;-89
2022/03/28 09:31:30;;;;;;;14.23;8.32;;;7.00;76.40;;;;;;6166777;23;20023;-89
2022/03/28 09:34:11;;;;;;;13.82;8.13;;;7.00;76.20;;;;;;6215963;23;20101;-89
2022/03/28 09:36:57;;;;;;;12.10;7.18;;;7.00;76.10;;;;;;6166152;23;20012;-88
2022/03/28 09:39:28;;;;;;;10.57;6.55;;;7.10;75.70;;;;;;6190277;23;20312;-88
2022/03/28 09:41:59;;;;;;;12.80;6.97;;;7.00;75.50;;;;;;6261984;22;20094;-89
2022/03/28 09:44:43;;;;;;;11.85;7.03;;;7.10;75.70;;;;;;6341166;22;20464;-89
2022/03/28 09:47:33;;;;;;;10.85;7.35;;;7.10;75.60;;;;;;6343460;22;20050;-89
2022/03/28 09:49:59;;;;;;;10.50;6.82;;;7.10;75.50;;;;;;6341351;22;20015;-88
2022/03/28 09:52:28;;;;;;;10.15;6.40;;;7.10;75.40;;;;;;6342194;22;20003;-88
2022/03/28 09:54:56;;;;;;;11.52;6.43;;;7.10;75.40;;;;;;6340820;22;20512;-86
2022/03/28 09:57:31;;;;;;;9.82;6.40;;;7.20;75.40;;;;;;6313427;22;20473;-87
2022/03/28 10:00:38;;;;;;;9.88;6.32;;;7.30;75.50;;;;;;6313503;22;20402;-89
2022/03/28 10:03:06;;;;;;;8.40;5.80;;;7.40;75.50;;;;;;6314374;22;20015;-89
2022/03/28 10:05:32;;;;;;;8.40;5.78;;;7.50;75.30;;;;;;6314164;22;20006;-88
2022/03/28 10:07:59;;;;;;;9.05;6.40;;;7.60;75.00;;;;;;6314258;22;20527;-88
2022/03/28 10:10:26;;;;;;;10.45;6.15;;;7.60;74.70;;;;;;6288763;22;20330;-89
2022/03/28 10:12:52;;;;;;;7.15;5.32;;;7.60;74.60;;;;;;6342625;22;20007;-89
2022/03/28 10:19:39;;;;;;;9.77;5.93;;;7.80;74.60;;;;;;6342303;22;20063;-90
2022/03/28 10:22:19;;;;;;;7.68;5.72;;;7.80;74.30;;;;;;6298669;22;20014;-88
2022/03/28 10:24:46;;;;;;;8.05;5.75;;;7.80;74.10;;;;;;6359133;22;20015;-89
2022/03/28 10:27:13;;;;;;;10.45;6.35;;;8.10;74.10;;;;;;6297989;22;20075;-89
2022/03/28 10:29:44;;;;;;;7.85;5.53;;;8.00;74.10;;;;;;6352936;22;20019;-96
2022/03/28 10:32:09;;;;;;;9.20;5.97;;;8.00;74.00;;;;;;6296790;22;20019;-96
2022/03/28 10:34:48;;;;;;;8.80;6.20;;;8.20;74.00;;;;;;6346120;22;20015;-95
2022/03/28 10:37:38;;;;;;;8.90;6.68;;;8.20;73.80;;;;;;6350138;22;20422;-95
2022/03/28 10:40:30;;;;;;;9.90;6.57;;;8.20;73.60;;;;;;6322564;22;20015;-96
2022/03/28 10:43:09;;;;;;;7.97;5.47;;;8.30;73.40;;;;;;6351747;22;20086;-96
2022/03/28 10:45:57;;;;;;;10.68;6.95;;;8.40;73.50;;;;;;6323854;22;20019;-96
2022/03/28 10:48:43;;;;;;;11.05;6.90;;;8.50;73.30;;;;;;6349118;22;20022;-96
2022/03/28 10:51:15;;;;;;;12.63;7.07;;;8.80;73.20;;;;;;6353982;22;20441;-96
2022/03/28 10:53:47;;;;;;;10.68;7.18;;;8.60;72.90;;;;;;6384343;22;20487;-96
2022/03/28 10:56:46;;;;;;;10.43;6.85;;;8.60;72.60;;;;;;6310187;22;20053;-96
2022/03/28 10:59:31;;;;;;;11.50;8.05;;;8.70;72.30;;;;;;6297368;22;20011;-95
2022/03/28 11:01:57;;;;;;;11.05;6.80;;;8.80;72.40;;;;;;6350373;22;20018;-96
2022/03/28 11:04:23;;;;;;;12.80;7.28;;;8.90;72.60;;;;;;6320944;22;20090;-96
2022/03/28 11:07:11;;;;;;;10.70;7.32;;;9.00;72.70;;;;;;6319962;22;20094;-96
2022/03/28 11:09:53;;;;;;;10.57;7.35;;;9.10;72.40;;;;;;6320275;22;20043;-93
2022/03/28 11:12:29;;;;;;;12.05;8.32;;;9.20;72.00;;;;;;6321250;22;20050;-94
2022/03/28 11:15:00;;;;;;;12.80;8.63;;;9.30;71.60;;;;;;6317756;22;20041;-91
2022/03/28 11:17:35;;;;;;;13.98;9.80;;;9.90;71.60;;;;;;6317723;22;20342;-90
2022/03/28 11:20:18;;;;;;;12.65;8.98;;;9.70;71.10;;;;;;6266909;22;20125;-89
2022/03/28 11:22:54;;;;;;;12.93;8.57;;;9.60;71.10;;;;;;6316808;22;20026;-92
2022/03/28 11:25:43;;;;;;;11.82;8.80;;;9.70;70.60;;;;;;6344752;22;20014;-90
2022/03/28 11:28:21;;;;;;;13.25;9.20;;;9.70;69.80;;;;;;6317637;22;20022;-92
2022/03/28 11:30:48;;;;;;;14.15;9.18;;;9.80;69.90;;;;;;6325232;22;20003;-88
2022/03/28 11:33:23;;;;;;;15.88;9.55;;;9.90;70.00;;;;;;6333398;22;20101;-86
2022/03/28 11:36:03;;;;;;;17.80;10.38;;;10.00;69.80;;;;;;6329562;22;20019;-89
2022/03/28 11:38:38;;;;;;;16.95;11.00;;;10.10;69.60;;;;;;6299818;22;20118;-87
2022/03/28 11:41:05;;;;;;;22.88;11.40;;;10.20;69.10;;;;;;6322758;22;20022;-88
2022/03/28 11:43:31;;;;;;;19.08;10.63;;;10.40;69.10;;;;;;6349460;22;20300;-87
2022/03/28 11:45:58;;;;;;;17.17;10.52;;;10.40;69.00;;;;;;6288379;22;20015;-87
2022/03/28 11:48:24;;;;;;;17.27;11.40;;;10.40;68.80;;;;;;6313893;22;20062;-88
2022/03/28 11:50:50;;;;;;;16.95;12.00;;;10.50;68.50;;;;;;6287797;22;20010;-87
2022/03/28 11:53:18;;;;;;;18.00;12.05;;;10.90;68.50;;;;;;6341160;22;20019;-88
2022/03/28 11:55:55;;;;;;;17.27;11.88;;;10.60;67.90;;;;;;6316152;22;20101;-88
2022/03/28 11:58:31;;;;;;;18.25;12.00;;;10.70;67.50;;;;;;6341640;22;20013;-88
2022/03/28 12:01:10;;;;;;;18.02;11.82;;;10.80;67.60;;;;;;6287938;22;20024;-87
2022/03/28 12:03:46;;;;;;;17.90;11.98;;;11.00;67.50;;;;;;6342387;22;20070;-89
2022/03/28 12:06:12;;;;;;;17.40;11.20;;;10.90;67.20;;;;;;6287092;22;20140;-88
2022/03/28 12:08:38;;;;;;;18.85;11.90;;;11.00;66.70;;;;;;6341751;22;20026;-88
2022/03/28 12:11:04;;;;;;;18.05;12.25;;;11.20;66.60;;;;;;6313688;22;20021;-88
2022/03/28 12:13:29;;;;;;;16.77;11.45;;;11.00;66.20;;;;;;6313649;22;20054;-85
2022/03/28 12:15:56;;;;;;;19.30;12.50;;;11.10;67.00;;;;;;6340589;22;20015;-85
2022/03/28 12:18:23;;;;;;;20.77;13.80;;;11.10;66.40;;;;;;6313162;22;20011;-85
2022/03/28 12:20:53;;;;;;;22.33;14.23;;;11.20;66.30;;;;;;6341233;22;20015;-85
2022/03/28 12:23:22;;;;;;;21.42;13.27;;;11.20;66.20;;;;;;6314632;22;20117;-93
2022/03/28 12:25:51;;;;;;;21.45;14.45;;;11.30;66.20;;;;;;6323646;22;20368;-95
2022/03/28 12:28:38;;;;;;;22.75;14.20;;;11.30;65.80;;;;;;6320946;22;20022;-94
2022/03/28 12:31:16;;;;;;;24.45;15.50;;;11.50;65.10;;;;;;6341306;22;20049;-85
2022/03/28 12:33:44;;;;;;;22.65;15.27;;;11.40;65.00;;;;;;6313142;22;20330;-85
2022/03/28 12:36:12;;;;;;;24.48;16.27;;;11.40;65.10;;;;;;6312849;22;20015;-84
2022/03/28 12:38:43;;;;;;;24.10;15.85;;;11.70;65.30;;;;;;6312633;22;20319;-85
2022/03/28 12:41:14;;;;;;;25.95;17.13;;;11.60;65.50;;;;;;6341166;22;20078;-85
2022/03/28 12:43:46;;;;;;;26.13;17.05;;;11.70;65.70;;;;;;6340837;22;20095;-85
2022/03/28 12:46:13;;;;;;;23.35;16.52;;;11.90;65.20;;;;;;6312223;22;20018;-85
2022/03/28 12:48:50;;;;;;;26.20;18.42;;;11.80;64.80;;;;;;6312713;22;20015;-86
2022/03/28 12:51:28;;;;;;;25.02;17.05;;;11.90;64.80;;;;;;6287010;22;20023;-86
2022/03/28 12:54:06;;;;;;;28.63;18.30;;;12.00;64.50;;;;;;6313353;22;20066;-86
2022/03/28 12:56:44;;;;;;;28.73;18.42;;;12.00;64.10;;;;;;6312364;22;20447;-86
2022/03/28 12:59:10;;;;;;;26.00;17.80;;;12.10;63.80;;;;;;6341367;22;20064;-86
2022/03/28 13:01:36;;;;;;;26.70;17.92;;;12.20;64.10;;;;;;6313182;22;20353;-88
2022/03/28 13:04:17;;;;;;;30.38;17.45;;;12.30;63.70;;;;;;6341014;22;20021;-85
2022/03/28 13:06:44;;;;;;;28.27;18.48;;;12.30;63.00;;;;;;6341106;22;20022;-87
2022/03/28 13:09:12;;;;;;;27.95;19.63;;;12.30;63.00;;;;;;6313499;22;20036;-87
2022/03/28 13:11:38;;;;;;;26.60;18.38;;;12.70;63.40;;;;;;6312822;22;20015;-85
2022/03/28 13:14:07;;;;;;;28.60;18.98;;;12.50;62.80;;;;;;6313102;22;20046;-85
2022/03/28 13:16:34;;;;;;;24.63;17.83;;;12.50;62.60;;;;;;6339943;22;20019;-85
2022/03/28 13:19:07;;;;;;;26.48;18.48;;;12.60;62.70;;;;;;6287318;22;20030;-87
2022/03/28 13:21:38;;;;;;;24.38;16.30;;;12.70;62.90;;;;;;6313303;22;20014;-86
2022/03/28 13:24:06;;;;;;;27.92;19.50;;;12.70;63.20;;;;;;6312898;22;20372;-85